KMVL/MVL METAR and TAF weather

Enter ICAO airport designator
Station Type Date Time Source
KMVL METAR 2020/01/23 17:54 UTC NOAA

KMVL 231754Z AUTO 00000KT 10SM CLR M01/M09 A3029 RMK AO2 SLP270 I6000 T10111089 11011 21183 58016


Station Type Date Time Source
KMVL Decoded METAR 2020/01/23 17:54 UTC NOAA

MORRISVILLE STOWE STATE AIRPORT , VT, United States (KMVL) 44-32N 72-37W 223M
Jan 23, 2020 - 12:54 PM EST / 2020.01.23 1754 UTC
Wind: Calm:0
Visibility: 10 mile(s):0
Sky conditions: clear
Temperature: 30.0 F (-1.1 C)
Dew Point: 16.0 F (-8.9 C)
Relative Humidity: 55%
Pressure (altimeter): 30.29 in. Hg (1025 hPa)
Pressure tendency: 0.05 inches (1.6 hPa) lower than three hours ago
ob: KMVL 231754Z AUTO 00000KT 10SM CLR M01/M09 A3029 RMK AO2 SLP270 I6000 T10111089 11011 21183 58016
cycle: 18

Station Type Date Time Source
KMVL TAF UTC NOAA

Error!

Example: see airport list